createdAt,value
2018-05-09T00:00:30.656Z,44.70
2018-05-09T00:01:08.858Z,44.70
2018-05-09T00:01:46.195Z,44.70
2018-05-09T00:02:24.431Z,44.70
2018-05-09T00:03:01.851Z,44.70
2018-05-09T00:03:38.995Z,44.70
2018-05-09T00:04:17.170Z,44.70
2018-05-09T00:04:55.389Z,44.80
2018-05-09T00:05:33.481Z,44.80
2018-05-09T00:06:10.930Z,44.70
2018-05-09T00:06:48.519Z,44.70
2018-05-09T00:07:26.875Z,44.80
2018-05-09T00:08:04.186Z,44.80
2018-05-09T00:08:41.497Z,44.80
2018-05-09T00:09:18.909Z,44.80
2018-05-09T00:09:56.138Z,44.70
2018-05-09T00:10:33.614Z,44.70
2018-05-09T00:11:10.926Z,44.70
2018-05-09T00:11:48.235Z,44.70
2018-05-09T00:12:25.708Z,44.70
2018-05-09T00:13:03.181Z,44.70
2018-05-09T00:13:40.658Z,44.70
2018-05-09T00:14:17.987Z,44.70
2018-05-09T00:14:56.175Z,44.80
2018-05-09T00:15:33.489Z,44.70
2018-05-09T00:16:11.642Z,44.80
2018-05-09T00:16:49.733Z,44.80
2018-05-09T00:17:27.092Z,44.80
2018-05-09T00:18:04.369Z,44.80
2018-05-09T00:18:41.795Z,44.70
2018-05-09T00:19:19.750Z,44.80
2018-05-09T00:19:57.110Z,44.80
2018-05-09T00:20:34.431Z,44.80
2018-05-09T00:21:11.722Z,44.80
2018-05-09T00:21:49.859Z,44.80
2018-05-09T00:22:27.492Z,44.70
2018-05-09T00:23:04.902Z,44.70
2018-05-09T00:23:42.253Z,44.70
2018-05-09T00:24:20.282Z,45.40
2018-05-09T00:24:58.292Z,44.70
2018-05-09T00:25:36.270Z,44.80
2018-05-09T00:26:13.678Z,44.80
2018-05-09T00:26:51.002Z,44.70
2018-05-09T00:27:29.727Z,44.70
2018-05-09T00:28:07.948Z,44.70
2018-05-09T00:28:45.175Z,44.70
2018-05-09T00:29:22.609Z,44.70
2018-05-09T00:30:00.037Z,44.80
2018-05-09T00:30:38.166Z,44.80
2018-05-09T00:31:15.413Z,44.70
2018-05-09T00:31:52.685Z,44.80
2018-05-09T00:32:31.004Z,44.80
2018-05-09T00:33:08.289Z,44.80
2018-05-09T00:33:46.366Z,44.90
2018-05-09T00:34:23.833Z,44.80
2018-05-09T00:35:01.887Z,44.90
2018-05-09T00:35:39.296Z,44.90
2018-05-09T00:36:17.503Z,44.90
2018-05-09T00:36:55.626Z,44.90
2018-05-09T00:37:32.846Z,44.80
2018-05-09T00:38:10.341Z,45.00
2018-05-09T00:38:48.679Z,44.90
2018-05-09T00:39:26.760Z,44.90
2018-05-09T00:40:04.984Z,44.90
2018-05-09T00:40:42.240Z,44.90
2018-05-09T00:41:20.457Z,44.90
2018-05-09T00:41:57.843Z,44.90
2018-05-09T00:42:35.999Z,45.00
2018-05-09T00:43:13.394Z,44.90
2018-05-09T00:43:51.462Z,45.00
2018-05-09T00:44:28.690Z,45.00
2018-05-09T00:45:06.873Z,45.00
2018-05-09T00:45:44.085Z,45.00
2018-05-09T00:46:21.439Z,44.90
2018-05-09T00:46:58.880Z,44.90
2018-05-09T00:47:36.966Z,45.00
2018-05-09T00:48:15.078Z,45.00
2018-05-09T00:48:52.281Z,45.00
2018-05-09T00:49:29.489Z,45.00
2018-05-09T00:50:06.950Z,45.00
2018-05-09T00:50:45.148Z,45.00
2018-05-09T00:51:23.164Z,45.00
2018-05-09T00:52:00.512Z,45.00
2018-05-09T00:52:38.735Z,45.00
2018-05-09T00:53:16.003Z,44.90
2018-05-09T00:53:54.103Z,45.00
2018-05-09T00:54:31.654Z,44.90
2018-05-09T00:55:09.154Z,44.90
2018-05-09T00:55:47.155Z,45.00
2018-05-09T00:56:24.441Z,44.90
2018-05-09T00:57:01.807Z,45.00
2018-05-09T00:57:39.786Z,45.00
2018-05-09T00:58:17.090Z,45.00
2018-05-09T00:58:55.070Z,45.00
2018-05-09T00:59:32.409Z,45.00
2018-05-09T01:00:10.639Z,45.00
2018-05-09T01:00:47.943Z,45.00
2018-05-09T01:01:25.391Z,45.00
2018-05-09T01:02:02.647Z,44.90
2018-05-09T01:02:40.836Z,45.00
2018-05-09T01:03:18.941Z,45.00
2018-05-09T01:03:56.167Z,45.00
2018-05-09T01:04:33.742Z,45.00
2018-05-09T01:05:11.042Z,45.00
2018-05-09T01:05:48.406Z,45.00
2018-05-09T01:06:26.674Z,45.10
2018-05-09T01:07:04.843Z,45.60
2018-05-09T01:07:42.813Z,45.00
2018-05-09T01:08:21.128Z,45.00
2018-05-09T01:08:59.259Z,45.00
2018-05-09T01:09:37.581Z,45.10
2018-05-09T01:10:15.039Z,45.00
2018-05-09T01:10:53.286Z,45.10
2018-05-09T01:11:30.579Z,45.10
2018-05-09T01:12:08.755Z,45.10
2018-05-09T01:12:46.119Z,45.10
2018-05-09T01:13:23.546Z,45.10
2018-05-09T01:14:01.094Z,45.20
2018-05-09T01:14:38.473Z,45.20
2018-05-09T01:15:17.279Z,45.20
2018-05-09T01:15:54.764Z,45.30
2018-05-09T01:16:32.144Z,45.20
2018-05-09T01:17:10.418Z,45.10
2018-05-09T01:17:47.898Z,45.20
2018-05-09T01:18:25.931Z,45.10
2018-05-09T01:19:03.176Z,45.10
2018-05-09T01:19:41.183Z,45.00
2018-05-09T01:20:18.399Z,45.00
2018-05-09T01:20:55.822Z,45.00
2018-05-09T01:21:33.917Z,45.00
2018-05-09T01:22:11.194Z,45.00
2018-05-09T01:22:48.686Z,45.10
2018-05-09T01:23:26.778Z,45.20
2018-05-09T01:24:04.081Z,45.10
2018-05-09T01:24:41.391Z,45.10
2018-05-09T01:25:19.503Z,45.20
2018-05-09T01:25:56.864Z,45.20
2018-05-09T01:26:34.307Z,45.20
2018-05-09T01:27:11.742Z,45.20
2018-05-09T01:27:49.175Z,45.20
2018-05-09T01:28:26.628Z,45.10
2018-05-09T01:29:03.971Z,45.10
2018-05-09T01:29:41.408Z,45.10
2018-05-09T01:30:18.789Z,45.10
2018-05-09T01:30:56.918Z,45.10
2018-05-09T01:31:34.275Z,45.10
2018-05-09T01:32:12.522Z,45.10
2018-05-09T01:32:50.602Z,45.20
2018-05-09T01:33:28.039Z,45.20
2018-05-09T01:34:06.260Z,45.10
2018-05-09T01:34:43.773Z,45.10
2018-05-09T01:35:20.991Z,45.10
2018-05-09T01:35:59.090Z,45.80
2018-05-09T01:36:36.502Z,45.10
2018-05-09T01:37:13.810Z,45.20
2018-05-09T01:37:51.207Z,45.20
2018-05-09T01:38:28.609Z,45.20
2018-05-09T01:39:05.770Z,45.10
2018-05-09T01:39:43.187Z,45.20
2018-05-09T01:40:20.509Z,45.20
2018-05-09T01:40:57.778Z,45.20
2018-05-09T01:41:35.243Z,45.20
2018-05-09T01:42:12.727Z,45.20
2018-05-09T01:42:50.018Z,45.10
2018-05-09T01:43:28.129Z,45.10
2018-05-09T01:44:05.361Z,45.10
2018-05-09T01:44:43.591Z,45.20
2018-05-09T01:45:20.928Z,45.20
2018-05-09T01:45:58.202Z,45.10
2018-05-09T01:46:36.354Z,45.20
2018-05-09T01:47:13.677Z,45.10
2018-05-09T01:47:51.719Z,45.30
2018-05-09T01:48:29.687Z,45.30
2018-05-09T01:49:07.039Z,45.30
2018-05-09T01:49:44.316Z,45.40
2018-05-09T01:50:21.774Z,45.30
2018-05-09T01:50:59.093Z,45.30
2018-05-09T01:51:36.399Z,45.40
2018-05-09T01:52:13.609Z,45.30
2018-05-09T01:52:51.740Z,45.20
2018-05-09T01:53:30.190Z,45.30
2018-05-09T01:54:07.701Z,45.20
2018-05-09T01:54:44.913Z,45.20
2018-05-09T01:55:22.879Z,45.30
2018-05-09T01:56:01.106Z,45.30
2018-05-09T01:56:39.167Z,45.90
2018-05-09T01:57:16.579Z,45.20
2018-05-09T01:57:53.828Z,45.30
2018-05-09T01:58:31.926Z,45.30
2018-05-09T01:59:09.272Z,45.30
2018-05-09T01:59:46.742Z,45.30
2018-05-09T02:00:24.659Z,45.40
2018-05-09T02:01:02.873Z,45.40
2018-05-09T02:01:40.208Z,45.40
2018-05-09T02:02:17.647Z,45.30
2018-05-09T02:02:55.710Z,45.50
2018-05-09T02:03:33.040Z,45.50
2018-05-09T02:04:10.533Z,45.50
2018-05-09T02:04:47.814Z,45.50
2018-05-09T02:05:25.112Z,45.50
2018-05-09T02:06:02.401Z,45.50
2018-05-09T02:06:40.026Z,45.50
2018-05-09T02:07:17.452Z,45.50
2018-05-09T02:07:54.758Z,45.70
2018-05-09T02:08:32.164Z,45.60
2018-05-09T02:09:10.185Z,45.50
2018-05-09T02:09:48.285Z,45.60
2018-05-09T02:10:25.649Z,45.60
2018-05-09T02:11:03.877Z,45.60
2018-05-09T02:11:41.842Z,45.50
2018-05-09T02:12:19.313Z,45.50
2018-05-09T02:12:57.514Z,45.60
2018-05-09T02:13:35.713Z,45.50
2018-05-09T02:14:13.077Z,45.50
2018-05-09T02:14:50.434Z,45.60
2018-05-09T02:15:27.915Z,45.40
2018-05-09T02:16:05.222Z,45.40
2018-05-09T02:16:43.307Z,45.50
2018-05-09T02:17:21.295Z,46.00
2018-05-09T02:17:59.493Z,45.50
2018-05-09T02:18:36.912Z,45.50
2018-05-09T02:19:14.858Z,45.50
2018-05-09T02:19:52.325Z,45.50
2018-05-09T02:20:30.343Z,45.50
2018-05-09T02:21:07.701Z,45.50
2018-05-09T02:21:44.998Z,45.50
2018-05-09T02:22:23.180Z,45.60
2018-05-09T02:23:00.508Z,46.20
2018-05-09T02:23:38.765Z,45.40
2018-05-09T02:24:16.025Z,45.50
2018-05-09T02:24:54.123Z,45.60
2018-05-09T02:25:31.437Z,45.50
2018-05-09T02:26:09.512Z,45.50
2018-05-09T02:26:46.857Z,45.50
2018-05-09T02:27:24.382Z,45.50
2018-05-09T02:28:01.797Z,45.50
2018-05-09T02:28:39.258Z,45.50
2018-05-09T02:29:16.738Z,45.50
2018-05-09T02:29:54.074Z,45.40
2018-05-09T02:30:32.154Z,45.40
2018-05-09T02:31:09.580Z,45.40
2018-05-09T02:31:47.199Z,45.40
2018-05-09T02:32:25.358Z,45.40
2018-05-09T02:33:02.908Z,45.40
2018-05-09T02:33:40.321Z,45.30
2018-05-09T02:34:17.821Z,45.30
2018-05-09T02:34:56.049Z,45.50
2018-05-09T02:35:34.221Z,45.40
2018-05-09T02:36:12.367Z,45.50
2018-05-09T02:36:49.843Z,45.50
2018-05-09T02:37:27.102Z,45.50
2018-05-09T02:38:04.380Z,45.70
2018-05-09T02:38:42.586Z,45.70
2018-05-09T02:39:19.917Z,45.70
2018-05-09T02:39:57.918Z,45.60
2018-05-09T02:40:36.311Z,45.60
2018-05-09T02:41:14.418Z,45.60
2018-05-09T02:41:52.494Z,45.60
2018-05-09T02:42:29.874Z,45.60
2018-05-09T02:43:07.310Z,45.50
2018-05-09T02:43:45.607Z,45.50
2018-05-09T02:44:23.199Z,45.50
2018-05-09T02:45:00.686Z,45.50
2018-05-09T02:45:38.154Z,45.70
2018-05-09T02:46:15.482Z,45.50
2018-05-09T02:46:52.699Z,45.50
2018-05-09T02:47:30.939Z,45.70
2018-05-09T02:48:08.965Z,45.60
2018-05-09T02:48:46.263Z,45.60
2018-05-09T02:49:23.556Z,45.70
2018-05-09T02:50:00.861Z,45.70
2018-05-09T02:50:38.360Z,45.50
2018-05-09T02:51:16.420Z,45.70
2018-05-09T02:51:53.888Z,45.70
2018-05-09T02:52:31.098Z,45.70
2018-05-09T02:53:08.439Z,45.60
2018-05-09T02:53:46.504Z,45.60
2018-05-09T02:54:23.959Z,45.60
2018-05-09T02:55:01.431Z,45.70
2018-05-09T02:55:38.915Z,45.80
2018-05-09T02:56:16.378Z,45.70
2018-05-09T02:56:53.910Z,45.80
2018-05-09T02:57:31.980Z,45.70
2018-05-09T02:58:10.091Z,45.70
2018-05-09T02:58:47.398Z,45.70
2018-05-09T02:59:24.666Z,45.70
2018-05-09T03:00:02.080Z,45.70
2018-05-09T03:00:40.095Z,45.70
2018-05-09T03:01:17.349Z,45.70
2018-05-09T03:01:55.022Z,45.60
2018-05-09T03:02:33.280Z,45.60
2018-05-09T03:03:10.654Z,45.60
2018-05-09T03:03:48.079Z,45.60
2018-05-09T03:04:25.466Z,45.50
2018-05-09T03:05:02.817Z,45.50
2018-05-09T03:05:40.034Z,45.50
2018-05-09T03:06:17.325Z,45.50
2018-05-09T03:06:54.650Z,46.20
2018-05-09T03:07:32.180Z,45.50
2018-05-09T03:08:09.584Z,45.60
2018-05-09T03:08:46.866Z,45.50
2018-05-09T03:09:24.234Z,45.50
2018-05-09T03:10:02.183Z,45.60
2018-05-09T03:10:39.602Z,45.60
2018-05-09T03:11:17.081Z,45.70
2018-05-09T03:11:54.277Z,45.50
2018-05-09T03:12:32.504Z,45.70
2018-05-09T03:13:09.780Z,45.70
2018-05-09T03:13:47.135Z,45.70
2018-05-09T03:14:25.252Z,45.70
2018-05-09T03:15:02.551Z,45.70
2018-05-09T03:15:40.814Z,46.30
2018-05-09T03:16:18.917Z,45.70
2018-05-09T03:16:56.168Z,45.70
2018-05-09T03:17:33.444Z,45.60
2018-05-09T03:18:11.551Z,45.80
2018-05-09T03:18:48.982Z,45.80
2018-05-09T03:19:26.209Z,45.80
2018-05-09T03:20:03.850Z,45.80
2018-05-09T03:20:41.215Z,45.80
2018-05-09T03:21:19.349Z,45.80
2018-05-09T03:21:56.596Z,45.80
2018-05-09T03:22:33.954Z,45.90
2018-05-09T03:23:11.303Z,45.90
2018-05-09T03:23:48.760Z,45.90
2018-05-09T03:24:26.079Z,45.80
2018-05-09T03:25:03.381Z,45.80
2018-05-09T03:25:40.865Z,45.80
2018-05-09T03:26:18.229Z,45.70
2018-05-09T03:26:55.746Z,45.70
2018-05-09T03:27:33.062Z,45.80
2018-05-09T03:28:10.353Z,45.70
2018-05-09T03:28:48.583Z,45.80
2018-05-09T03:29:26.803Z,46.00
2018-05-09T03:30:04.152Z,46.00
2018-05-09T03:30:42.362Z,45.90
2018-05-09T03:31:19.686Z,45.90
2018-05-09T03:31:57.931Z,46.00
2018-05-09T03:32:35.182Z,46.00
2018-05-09T03:33:12.507Z,46.00
2018-05-09T03:33:50.576Z,46.10
2018-05-09T03:34:27.881Z,46.10
2018-05-09T03:35:05.124Z,46.10
2018-05-09T03:35:43.215Z,46.00
2018-05-09T03:36:20.437Z,46.00
2018-05-09T03:36:58.674Z,46.10
2018-05-09T03:37:36.062Z,46.10
2018-05-09T03:38:14.190Z,46.00
2018-05-09T03:38:51.370Z,46.00
2018-05-09T03:39:29.621Z,46.00
2018-05-09T03:40:06.995Z,46.00
2018-05-09T03:40:45.207Z,46.10
2018-05-09T03:41:22.447Z,46.00
2018-05-09T03:41:59.884Z,46.00
2018-05-09T03:42:37.350Z,46.00
2018-05-09T03:43:14.557Z,46.00
2018-05-09T03:43:52.049Z,46.00
2018-05-09T03:44:29.264Z,46.00
2018-05-09T03:45:06.575Z,46.10
2018-05-09T03:45:43.958Z,46.00
2018-05-09T03:46:22.096Z,46.00
2018-05-09T03:46:59.370Z,46.00
2018-05-09T03:47:37.358Z,46.10
2018-05-09T03:48:15.455Z,46.00
2018-05-09T03:48:52.894Z,46.00
2018-05-09T03:49:30.215Z,46.00
2018-05-09T03:50:07.445Z,46.00
2018-05-09T03:50:44.696Z,46.00
2018-05-09T03:51:21.978Z,46.00
2018-05-09T03:51:59.343Z,46.00
2018-05-09T03:52:36.553Z,46.00
2018-05-09T03:53:14.798Z,46.00
2018-05-09T03:53:52.351Z,46.00
2018-05-09T03:54:30.470Z,46.10
2018-05-09T03:55:08.540Z,46.10
2018-05-09T03:55:45.834Z,46.10
2018-05-09T03:56:23.069Z,46.20
2018-05-09T03:57:01.277Z,46.20
2018-05-09T03:57:38.538Z,46.20
2018-05-09T03:58:16.739Z,46.20
2018-05-09T03:58:54.938Z,46.20
2018-05-09T03:59:32.370Z,46.20
2018-05-09T04:00:09.669Z,46.10
2018-05-09T04:00:47.723Z,46.20
2018-05-09T04:01:25.128Z,46.20
2018-05-09T04:02:02.572Z,46.10
2018-05-09T04:02:40.940Z,46.20
2018-05-09T04:03:18.344Z,46.20
2018-05-09T04:03:55.666Z,46.20
2018-05-09T04:04:32.879Z,46.20
2018-05-09T04:05:10.105Z,46.90
2018-05-09T04:05:48.298Z,46.20
2018-05-09T04:06:25.695Z,46.20
2018-05-09T04:07:03.051Z,46.30
2018-05-09T04:07:40.449Z,46.30
2018-05-09T04:08:17.741Z,46.30
2018-05-09T04:08:56.552Z,46.40
2018-05-09T04:09:33.984Z,46.30
2018-05-09T04:10:11.464Z,46.30
2018-05-09T04:10:49.603Z,46.30
2018-05-09T04:11:26.933Z,46.30
2018-05-09T04:12:04.971Z,46.40
2018-05-09T04:12:42.325Z,46.30
2018-05-09T04:13:20.542Z,46.20
2018-05-09T04:13:57.949Z,46.20
2018-05-09T04:14:35.135Z,46.40
2018-05-09T04:15:12.401Z,46.40
2018-05-09T04:15:50.664Z,46.50
2018-05-09T04:16:28.121Z,46.50
2018-05-09T04:17:06.235Z,46.50
2018-05-09T04:17:44.319Z,46.30
2018-05-09T04:18:22.524Z,46.40
2018-05-09T04:18:59.891Z,46.40
2018-05-09T04:19:38.096Z,46.50
2018-05-09T04:20:15.393Z,46.50
2018-05-09T04:20:52.813Z,47.00
2018-05-09T04:21:31.075Z,46.40
2018-05-09T04:22:08.245Z,46.30
2018-05-09T04:22:45.502Z,46.40
2018-05-09T04:23:23.588Z,46.30
2018-05-09T04:24:01.780Z,46.40
2018-05-09T04:24:39.015Z,46.40
2018-05-09T04:25:16.326Z,46.40
2018-05-09T04:25:54.430Z,46.30
2018-05-09T04:26:31.755Z,46.30
2018-05-09T04:27:09.029Z,46.50
2018-05-09T04:27:46.313Z,46.20
2018-05-09T04:28:23.819Z,46.50
2018-05-09T04:29:01.196Z,46.70
2018-05-09T04:29:38.429Z,46.80
2018-05-09T04:30:16.665Z,46.80
2018-05-09T04:30:54.027Z,46.70
2018-05-09T04:31:31.384Z,46.70
2018-05-09T04:32:08.817Z,46.70
2018-05-09T04:32:46.170Z,46.80
2018-05-09T04:33:23.422Z,46.80
2018-05-09T04:34:01.562Z,46.80
2018-05-09T04:34:38.815Z,46.70
2018-05-09T04:35:16.927Z,46.90
2018-05-09T04:35:55.306Z,46.90
2018-05-09T04:36:33.390Z,46.90
2018-05-09T04:37:10.625Z,46.90
2018-05-09T04:37:48.135Z,46.90
2018-05-09T04:38:26.246Z,46.80
2018-05-09T04:39:03.631Z,46.90
2018-05-09T04:39:41.729Z,46.90
2018-05-09T04:40:19.914Z,46.80
2018-05-09T04:40:57.184Z,46.80
2018-05-09T04:41:34.572Z,46.80
2018-05-09T04:42:12.868Z,46.80
2018-05-09T04:42:50.987Z,46.90
2018-05-09T04:43:28.289Z,46.90
2018-05-09T04:44:06.523Z,46.50
2018-05-09T04:44:43.875Z,46.50
2018-05-09T04:45:21.339Z,46.90
2018-05-09T04:45:59.574Z,48.30
2018-05-09T04:46:36.964Z,48.30
2018-05-09T04:47:14.191Z,47.60
2018-05-09T04:47:51.680Z,47.80
2018-05-09T04:48:29.138Z,48.60
2018-05-09T04:49:06.457Z,47.80
2018-05-09T04:49:43.871Z,48.10
2018-05-09T04:50:21.257Z,49.00
2018-05-09T04:50:59.423Z,49.40
2018-05-09T04:51:36.869Z,49.40
2018-05-09T04:52:14.229Z,48.50
2018-05-09T04:52:51.595Z,50.10
2018-05-09T04:53:29.854Z,49.80
2018-05-09T04:54:07.191Z,49.80
2018-05-09T04:54:45.432Z,51.30
2018-05-09T04:55:23.866Z,50.80
2018-05-09T04:56:02.115Z,50.00
2018-05-09T04:56:40.228Z,49.90
2018-05-09T04:57:17.431Z,49.90
2018-05-09T04:57:54.650Z,50.80
2018-05-09T04:58:32.012Z,51.40
2018-05-09T04:59:10.229Z,51.30
2018-05-09T04:59:47.367Z,51.30
2018-05-09T05:00:24.770Z,51.60
2018-05-09T05:01:01.938Z,52.10
2018-05-09T05:01:40.026Z,51.70
2018-05-09T05:02:17.407Z,51.70
2018-05-09T05:02:54.556Z,51.60
2018-05-09T05:03:31.956Z,51.70
2018-05-09T05:04:10.042Z,52.00
2018-05-09T05:04:47.328Z,52.00
2018-05-09T05:05:25.413Z,52.40
2018-05-09T05:06:02.851Z,52.40
2018-05-09T05:06:40.286Z,52.30
2018-05-09T05:07:18.363Z,52.70
2018-05-09T05:07:56.494Z,52.20
2018-05-09T05:08:33.748Z,52.20
2018-05-09T05:09:11.931Z,51.70
2018-05-09T05:09:49.195Z,51.70
2018-05-09T05:10:26.454Z,51.70
2018-05-09T05:11:03.746Z,52.20
2018-05-09T05:11:41.273Z,52.10
2018-05-09T05:12:19.421Z,52.10
2018-05-09T05:12:56.983Z,52.10
2018-05-09T05:13:34.565Z,52.00
2018-05-09T05:14:11.817Z,52.10
2018-05-09T05:14:49.244Z,52.10
2018-05-09T05:15:26.516Z,52.10
2018-05-09T05:16:04.606Z,52.10
2018-05-09T05:16:41.890Z,52.10
2018-05-09T05:17:19.236Z,51.90
2018-05-09T05:17:57.344Z,51.70
2018-05-09T05:18:34.569Z,51.60
2018-05-09T05:19:11.842Z,51.60
2018-05-09T05:19:49.888Z,51.60
2018-05-09T05:20:27.258Z,51.60
2018-05-09T05:21:04.680Z,51.50
2018-05-09T05:21:42.843Z,51.90
2018-05-09T05:22:20.957Z,51.90
2018-05-09T05:22:58.155Z,51.90
2018-05-09T05:23:36.469Z,51.70
2018-05-09T05:24:13.894Z,51.70
2018-05-09T05:24:51.971Z,51.90
2018-05-09T05:25:29.308Z,52.00
2018-05-09T05:26:06.623Z,51.70
2018-05-09T05:26:44.830Z,51.50
2018-05-09T05:27:22.979Z,51.60
2018-05-09T05:28:01.232Z,51.60
2018-05-09T05:28:39.452Z,51.60
2018-05-09T05:29:16.848Z,51.60
2018-05-09T05:29:55.079Z,51.70
2018-05-09T05:30:32.412Z,51.70
2018-05-09T05:31:10.869Z,52.00
2018-05-09T05:31:48.202Z,52.00
2018-05-09T05:32:25.610Z,52.40
2018-05-09T05:33:02.881Z,51.70
2018-05-09T05:33:40.112Z,51.60
2018-05-09T05:34:17.391Z,51.30
2018-05-09T05:34:54.762Z,51.30
2018-05-09T05:35:32.073Z,51.40
2018-05-09T05:36:09.311Z,51.60
2018-05-09T05:36:47.465Z,51.60
2018-05-09T05:37:24.686Z,51.60
2018-05-09T05:38:02.156Z,51.40
2018-05-09T05:38:39.505Z,50.70
2018-05-09T05:39:17.565Z,51.50
2018-05-09T05:39:55.687Z,51.20
2018-05-09T05:40:32.947Z,51.20
2018-05-09T05:41:10.870Z,51.30
2018-05-09T05:41:48.272Z,51.00
2018-05-09T05:42:25.525Z,51.00
2018-05-09T05:43:02.883Z,50.90
2018-05-09T05:43:40.115Z,51.10
2018-05-09T05:44:17.531Z,51.40
2018-05-09T05:44:55.041Z,51.50
2018-05-09T05:45:32.526Z,51.60
2018-05-09T05:46:09.895Z,51.60
2018-05-09T05:46:47.171Z,51.80
2018-05-09T05:47:25.426Z,51.80
2018-05-09T05:48:02.846Z,51.70
2018-05-09T05:48:41.083Z,52.00
2018-05-09T05:49:19.181Z,52.10
2018-05-09T05:49:56.591Z,52.00
2018-05-09T05:50:33.908Z,51.90
2018-05-09T05:51:11.213Z,51.90
2018-05-09T05:51:49.297Z,51.80
2018-05-09T05:52:26.576Z,51.70
2018-05-09T05:53:04.566Z,52.00
2018-05-09T05:53:41.738Z,52.00
2018-05-09T05:54:19.116Z,52.10
2018-05-09T05:54:57.170Z,52.90
2018-05-09T05:55:34.692Z,52.30
2018-05-09T05:56:11.885Z,52.20
2018-05-09T05:56:49.337Z,52.10
2018-05-09T05:57:27.301Z,52.00
2018-05-09T05:58:05.422Z,52.00
2018-05-09T05:58:43.399Z,52.60
2018-05-09T05:59:20.850Z,51.90
2018-05-09T05:59:58.341Z,52.50
2018-05-09T06:00:35.771Z,51.90
2018-05-09T06:01:13.050Z,51.80
2018-05-09T06:01:50.464Z,51.90
2018-05-09T06:02:27.761Z,51.70
2018-05-09T06:03:05.010Z,51.40
2018-05-09T06:03:42.482Z,51.80
2018-05-09T06:04:19.763Z,51.60
2018-05-09T06:04:57.191Z,51.40
2018-05-09T06:05:35.277Z,51.70
2018-05-09T06:06:13.266Z,51.80
2018-05-09T06:06:50.494Z,51.70
2018-05-09T06:07:27.787Z,51.70
2018-05-09T06:08:05.155Z,52.00
2018-05-09T06:08:42.589Z,52.10
2018-05-09T06:09:19.909Z,52.10
2018-05-09T06:09:57.387Z,52.00
2018-05-09T06:10:35.489Z,52.20
2018-05-09T06:11:13.479Z,52.30
2018-05-09T06:11:51.745Z,52.50
2018-05-09T06:12:29.109Z,52.50
2018-05-09T06:13:07.272Z,52.50
2018-05-09T06:13:44.493Z,52.40
2018-05-09T06:14:22.731Z,52.50
2018-05-09T06:15:00.827Z,52.60
2018-05-09T06:15:38.078Z,52.50
2018-05-09T06:16:15.327Z,52.80
2018-05-09T06:16:52.553Z,52.70
2018-05-09T06:17:29.767Z,52.60
2018-05-09T06:18:08.019Z,52.60
2018-05-09T06:18:45.476Z,52.50
2018-05-09T06:19:22.842Z,52.40
2018-05-09T06:20:00.983Z,52.20
2018-05-09T06:20:38.953Z,52.20
2018-05-09T06:21:16.302Z,52.20
2018-05-09T06:21:54.527Z,52.00
2018-05-09T06:22:31.939Z,51.90
2018-05-09T06:23:10.262Z,52.70
2018-05-09T06:23:48.306Z,52.10
2018-05-09T06:24:25.647Z,52.10
2018-05-09T06:25:03.770Z,52.60
2018-05-09T06:25:41.131Z,52.60
2018-05-09T06:26:19.346Z,52.50
2018-05-09T06:26:57.432Z,52.50
2018-05-09T06:27:34.764Z,52.50
2018-05-09T06:28:12.182Z,52.60
2018-05-09T06:28:50.490Z,52.40
2018-05-09T06:29:28.694Z,53.00
2018-05-09T06:30:06.114Z,52.40
2018-05-09T06:30:44.152Z,52.30
2018-05-09T06:31:22.252Z,52.40
2018-05-09T06:31:59.816Z,52.40
2018-05-09T06:32:37.922Z,52.40
2018-05-09T06:33:16.051Z,52.40
2018-05-09T06:33:54.342Z,52.30
2018-05-09T06:34:31.674Z,52.30
2018-05-09T06:35:09.907Z,52.60
2018-05-09T06:35:47.202Z,52.60
2018-05-09T06:36:25.348Z,52.80
2018-05-09T06:37:02.724Z,52.70
2018-05-09T06:37:40.083Z,52.60
2018-05-09T06:38:17.543Z,52.70
2018-05-09T06:38:55.586Z,52.50
2018-05-09T06:39:33.650Z,52.40
2018-05-09T06:40:11.854Z,52.20
2018-05-09T06:40:49.243Z,52.20
2018-05-09T06:41:27.329Z,52.60
2018-05-09T06:42:04.639Z,52.60
2018-05-09T06:42:41.847Z,52.30
2018-05-09T06:43:19.287Z,52.30
2018-05-09T06:43:57.387Z,52.10
2018-05-09T06:44:34.641Z,52.10
2018-05-09T06:45:11.975Z,52.10
2018-05-09T06:45:49.388Z,52.00
2018-05-09T06:46:26.862Z,52.20
2018-05-09T06:47:04.165Z,52.30
2018-05-09T06:47:41.429Z,52.30
2018-05-09T06:48:18.778Z,52.50
2018-05-09T06:48:57.068Z,52.20
2018-05-09T06:49:34.298Z,52.20
2018-05-09T06:50:12.394Z,51.90
2018-05-09T06:50:49.776Z,51.90
2018-05-09T06:51:27.445Z,51.90
2018-05-09T06:52:04.872Z,52.00
2018-05-09T06:52:42.190Z,52.20
2018-05-09T06:53:19.589Z,52.10
2018-05-09T06:53:56.796Z,52.00
2018-05-09T06:54:34.075Z,52.20
2018-05-09T06:55:12.329Z,52.30
2018-05-09T06:55:49.762Z,52.30
2018-05-09T06:56:27.002Z,52.30
2018-05-09T06:57:04.263Z,52.40
2018-05-09T06:57:41.690Z,52.40
2018-05-09T06:58:19.130Z,52.30
2018-05-09T06:58:56.581Z,52.40
2018-05-09T06:59:34.063Z,52.50
2018-05-09T07:00:12.353Z,52.40
2018-05-09T07:00:50.629Z,52.20
2018-05-09T07:01:28.561Z,52.00
2018-05-09T07:02:05.912Z,52.00
2018-05-09T07:02:43.201Z,52.10
2018-05-09T07:03:20.508Z,52.00
2018-05-09T07:03:57.823Z,52.10
2018-05-09T07:04:35.186Z,52.30
2018-05-09T07:05:13.322Z,52.30
2018-05-09T07:05:51.310Z,52.20
2018-05-09T07:06:28.782Z,52.20
2018-05-09T07:07:06.975Z,51.70
2018-05-09T07:07:44.400Z,51.70
2018-05-09T07:08:21.632Z,51.70
2018-05-09T07:08:59.004Z,51.60
2018-05-09T07:09:37.199Z,51.80
2018-05-09T07:10:14.623Z,51.80
2018-05-09T07:10:52.597Z,52.00
2018-05-09T07:11:30.570Z,52.00
2018-05-09T07:12:07.978Z,52.00
2018-05-09T07:12:46.053Z,52.20
2018-05-09T07:13:23.407Z,52.10
2018-05-09T07:14:01.505Z,52.30
2018-05-09T07:14:39.599Z,53.10
2018-05-09T07:15:16.822Z,52.30
2018-05-09T07:15:54.433Z,52.20
2018-05-09T07:16:32.545Z,52.30
2018-05-09T07:17:10.633Z,52.10
2018-05-09T07:17:48.620Z,52.10
2018-05-09T07:18:26.165Z,52.00
2018-05-09T07:19:04.396Z,52.20
2018-05-09T07:19:41.764Z,52.10
2018-05-09T07:20:19.187Z,52.20
2018-05-09T07:20:56.540Z,52.10
2018-05-09T07:21:33.887Z,52.30
2018-05-09T07:22:11.270Z,52.20
2018-05-09T07:22:48.733Z,52.10
2018-05-09T07:23:26.123Z,52.10
2018-05-09T07:24:03.399Z,52.40
2018-05-09T07:24:41.724Z,52.20
2018-05-09T07:25:18.995Z,52.20
2018-05-09T07:25:57.062Z,52.20
2018-05-09T07:26:34.357Z,52.30
2018-05-09T07:27:11.531Z,52.10
2018-05-09T07:27:48.791Z,51.90
2018-05-09T07:28:26.997Z,52.00
2018-05-09T07:29:04.248Z,52.00
2018-05-09T07:29:42.466Z,51.70
2018-05-09T07:30:19.841Z,51.70
2018-05-09T07:30:57.838Z,51.50
2018-05-09T07:31:36.122Z,51.70
2018-05-09T07:32:13.666Z,51.60
2018-05-09T07:32:51.244Z,51.60
2018-05-09T07:33:28.829Z,51.60
2018-05-09T07:34:06.121Z,51.60
2018-05-09T07:34:43.444Z,51.30
2018-05-09T07:35:21.042Z,51.10
2018-05-09T07:35:58.476Z,51.20
2018-05-09T07:36:35.929Z,51.20
2018-05-09T07:37:14.169Z,51.10
2018-05-09T07:37:51.615Z,51.10
2018-05-09T07:38:29.730Z,51.30
2018-05-09T07:39:07.086Z,51.30
2018-05-09T07:39:45.298Z,51.30
2018-05-09T07:40:23.500Z,51.30
2018-05-09T07:41:00.822Z,51.20
2018-05-09T07:41:38.273Z,51.20
2018-05-09T07:42:15.725Z,51.20
2018-05-09T07:42:53.124Z,51.20
2018-05-09T07:43:30.452Z,51.20
2018-05-09T07:44:07.947Z,51.30
2018-05-09T07:44:46.162Z,51.60
2018-05-09T07:45:23.384Z,51.60
2018-05-09T07:46:01.634Z,51.50
2018-05-09T07:46:38.892Z,51.40
2018-05-09T07:47:16.331Z,51.40
2018-05-09T07:47:54.490Z,51.20
2018-05-09T07:48:31.882Z,51.20
2018-05-09T07:49:09.850Z,51.10
2018-05-09T07:49:47.268Z,51.10
2018-05-09T07:50:24.729Z,51.20
2018-05-09T07:51:02.156Z,51.10
2018-05-09T07:51:39.590Z,50.80
2018-05-09T07:52:17.032Z,50.70
2018-05-09T07:52:54.203Z,50.50
2018-05-09T07:53:32.399Z,50.90
2018-05-09T07:54:09.619Z,50.80
2018-05-09T07:54:47.034Z,50.70
2018-05-09T07:55:24.344Z,50.40
2018-05-09T07:56:01.724Z,50.50
2018-05-09T07:56:38.959Z,50.50
2018-05-09T07:57:16.171Z,50.40
2018-05-09T07:57:53.448Z,50.30
2018-05-09T07:58:30.763Z,50.10
2018-05-09T07:59:09.026Z,50.20
2018-05-09T07:59:47.101Z,50.20
2018-05-09T08:00:25.179Z,50.50
2018-05-09T08:01:03.269Z,50.20
2018-05-09T08:01:40.630Z,50.10
2018-05-09T08:02:17.951Z,50.00
2018-05-09T08:02:55.433Z,50.60
2018-05-09T08:03:32.851Z,50.00
2018-05-09T08:04:10.051Z,49.80
2018-05-09T08:04:48.030Z,49.80